Time;durP1;ratioP1;P1;durP2;ratioP2;P2;SDS_P1;SDS_P2;PMS_P1;PMS_P2;Temp;Humidity;BMP_temperature;BMP_pressure;BME280_temperature;BME280_humidity;BME280_pressure;Samples;Min_cycle;Max_cycle;Signal;HPM_P1;HPM_P2
2022/12/06 00:01:31;;;;;;;3.20;2.90;;;8.60;99.90;;;;;;943011;147;27342;-80
2022/12/06 00:03:58;;;;;;;3.77;2.57;;;8.60;99.90;;;;;;940833;147;27307;-81
2022/12/06 00:06:24;;;;;;;3.90;2.80;;;8.70;99.90;;;;;;941089;147;27396;-81
2022/12/06 00:08:51;;;;;;;3.13;2.90;;;8.70;99.90;;;;;;941731;147;27370;-81
2022/12/06 00:11:20;;;;;;;2.97;2.63;;;8.70;99.90;;;;;;941874;147;27391;-81
2022/12/06 00:13:47;;;;;;;3.30;3.10;;;8.70;99.90;;;;;;941577;147;27820;-80
2022/12/06 00:16:13;;;;;;;4.27;3.17;;;8.70;99.90;;;;;;943905;147;27328;-80
2022/12/06 00:18:40;;;;;;;3.87;3.50;;;8.70;99.90;;;;;;942725;147;27358;-80
2022/12/06 00:21:13;;;;;;;3.63;3.30;;;8.80;99.90;;;;;;941132;147;27300;-80
2022/12/06 00:23:39;;;;;;;3.40;3.10;;;8.80;99.90;;;;;;940673;147;27398;-81
2022/12/06 00:26:06;;;;;;;3.53;3.13;;;8.80;99.90;;;;;;941556;147;27348;-80
2022/12/06 00:28:32;;;;;;;3.97;3.67;;;8.80;99.90;;;;;;941299;147;27348;-80
2022/12/06 00:30:59;;;;;;;3.67;3.37;;;8.80;99.90;;;;;;942015;147;27388;-81
2022/12/06 00:33:26;;;;;;;4.30;3.90;;;8.80;99.90;;;;;;942581;147;27411;-80
2022/12/06 00:35:55;;;;;;;3.73;3.43;;;8.80;99.90;;;;;;940473;147;27253;-81
2022/12/06 00:38:21;;;;;;;4.20;3.83;;;8.70;99.80;;;;;;941368;147;27361;-80
2022/12/06 00:40:48;;;;;;;3.93;3.63;;;8.70;99.90;;;;;;940235;147;27377;-80
2022/12/06 00:43:15;;;;;;;3.67;3.37;;;8.70;99.90;;;;;;941240;147;27385;-80
2022/12/06 00:45:41;;;;;;;3.87;3.57;;;8.70;99.80;;;;;;942131;147;27404;-80
2022/12/06 00:48:08;;;;;;;3.70;3.40;;;8.70;99.80;;;;;;941744;147;27416;-80
2022/12/06 00:50:35;;;;;;;3.63;3.37;;;8.70;99.80;;;;;;943177;147;27363;-80
2022/12/06 00:53:01;;;;;;;5.00;3.57;;;8.60;99.70;;;;;;942432;147;27354;-80
2022/12/06 00:55:28;;;;;;;3.83;3.50;;;8.60;99.60;;;;;;942767;147;27369;-81
2022/12/06 00:57:54;;;;;;;3.60;3.20;;;8.60;99.60;;;;;;941448;147;27469;-80
2022/12/06 01:00:21;;;;;;;3.70;3.40;;;8.60;99.60;;;;;;941324;147;27422;-80
2022/12/06 01:02:47;;;;;;;3.40;3.10;;;8.60;99.50;;;;;;940567;148;27424;-81
2022/12/06 01:05:14;;;;;;;3.30;3.00;;;8.50;99.50;;;;;;942368;147;27352;-80
2022/12/06 01:07:40;;;;;;;3.53;2.80;;;8.50;99.60;;;;;;942622;147;27286;-80
2022/12/06 01:10:08;;;;;;;3.70;2.87;;;8.50;99.60;;;;;;942819;147;27406;-80
2022/12/06 01:12:35;;;;;;;2.90;2.70;;;8.50;99.60;;;;;;941549;147;27792;-81
2022/12/06 01:15:01;;;;;;;3.00;2.80;;;8.40;99.50;;;;;;941193;147;27344;-81
2022/12/06 01:17:28;;;;;;;2.03;1.93;;;8.40;99.60;;;;;;942282;147;27321;-81
2022/12/06 01:19:54;;;;;;;2.63;2.43;;;8.40;99.70;;;;;;941766;147;27405;-81
2022/12/06 01:22:21;;;;;;;2.57;2.27;;;8.40;99.70;;;;;;943219;147;27352;-81
2022/12/06 01:24:47;;;;;;;2.33;2.17;;;8.40;99.80;;;;;;942140;147;28452;-79
2022/12/06 01:27:14;;;;;;;2.43;2.23;;;8.40;99.80;;;;;;940072;147;27403;-81
2022/12/06 01:29:41;;;;;;;2.77;2.40;;;8.40;99.80;;;;;;940666;147;27384;-80
2022/12/06 01:32:07;;;;;;;2.90;2.60;;;8.40;99.80;;;;;;942075;147;27290;-80
2022/12/06 01:34:34;;;;;;;2.97;2.67;;;8.40;99.80;;;;;;942911;147;27345;-81
2022/12/06 01:37:00;;;;;;;2.50;2.30;;;8.40;99.70;;;;;;941179;147;27731;-80
2022/12/06 01:39:27;;;;;;;2.73;2.53;;;8.40;99.60;;;;;;940458;147;27376;-80
2022/12/06 01:41:54;;;;;;;3.17;2.57;;;8.40;99.60;;;;;;942450;147;27323;-81
2022/12/06 01:44:45;;;;;;;4.20;2.70;;;8.40;99.70;;;;;;940442;147;27445;-80
2022/12/06 01:47:12;;;;;;;3.03;2.53;;;8.40;99.80;;;;;;941016;147;27314;-81
2022/12/06 01:49:38;;;;;;;2.40;2.20;;;8.40;99.90;;;;;;930517;147;27414;-80
2022/12/06 01:52:05;;;;;;;2.70;2.50;;;8.50;99.90;;;;;;942975;147;27993;-80
2022/12/06 01:54:31;;;;;;;4.33;2.83;;;8.50;99.90;;;;;;942696;147;27277;-81
2022/12/06 01:56:58;;;;;;;3.23;2.73;;;8.50;99.90;;;;;;942429;147;27388;-81
2022/12/06 01:59:24;;;;;;;3.20;2.90;;;8.50;99.90;;;;;;940778;147;27267;-81
2022/12/06 02:01:51;;;;;;;3.20;2.90;;;8.50;99.90;;;;;;940632;147;27329;-80
2022/12/06 02:04:18;;;;;;;3.10;2.80;;;8.50;99.90;;;;;;941396;147;27352;-80
2022/12/06 02:06:44;;;;;;;3.40;2.90;;;8.50;99.90;;;;;;942981;150;29126;-81
2022/12/06 02:09:11;;;;;;;4.63;2.87;;;8.50;99.90;;;;;;940850;147;27308;-80
2022/12/06 02:11:37;;;;;;;3.63;2.97;;;8.50;99.90;;;;;;941822;147;27314;-80
2022/12/06 02:14:04;;;;;;;3.43;2.77;;;8.60;99.90;;;;;;942822;147;27306;-80
2022/12/06 02:16:36;;;;;;;3.37;2.97;;;8.60;99.90;;;;;;942651;147;27432;-81
2022/12/06 02:19:40;;;;;;;2.80;2.60;;;8.60;99.90;;;;;;940373;147;28944;-81
2022/12/06 02:22:18;;;;;;;2.87;2.67;;;8.60;99.90;;;;;;943922;147;27483;-80
2022/12/06 02:24:54;;;;;;;3.57;3.00;;;8.60;99.70;;;;;;942989;147;27290;-81
2022/12/06 02:27:45;;;;;;;3.00;2.80;;;8.50;99.60;;;;;;941602;147;27370;-81
2022/12/06 02:30:17;;;;;;;3.40;3.03;;;8.50;99.70;;;;;;939097;147;27275;-81
2022/12/06 02:32:41;;;;;;;3.00;2.67;;;8.50;99.70;;;;;;941459;147;27417;-80
2022/12/06 02:35:10;;;;;;;2.70;2.50;;;8.50;99.80;;;;;;939246;147;27348;-79
2022/12/06 02:37:37;;;;;;;2.90;2.70;;;8.50;99.90;;;;;;942628;148;27772;-81
2022/12/06 02:40:06;;;;;;;3.63;3.20;;;8.50;99.90;;;;;;943622;147;27215;-80
2022/12/06 02:42:38;;;;;;;3.00;2.80;;;8.50;99.90;;;;;;942007;147;27318;-81
2022/12/06 02:45:05;;;;;;;3.00;2.70;;;8.50;99.90;;;;;;942215;147;27515;-79
2022/12/06 02:47:31;;;;;;;2.80;2.60;;;8.50;99.80;;;;;;940776;147;27237;-80
2022/12/06 02:49:58;;;;;;;3.80;2.90;;;8.50;99.80;;;;;;940987;147;27293;-80
2022/12/06 02:52:24;;;;;;;3.07;2.80;;;8.50;99.80;;;;;;930114;149;27381;-80
2022/12/06 02:54:51;;;;;;;3.17;2.97;;;8.50;99.90;;;;;;943721;147;27459;-80
2022/12/06 02:57:18;;;;;;;3.50;2.97;;;8.50;99.90;;;;;;923943;150;27465;-80
2022/12/06 02:59:51;;;;;;;3.33;3.00;;;8.50;99.90;;;;;;941909;147;27255;-80
2022/12/06 03:02:17;;;;;;;6.13;3.30;;;8.50;99.90;;;;;;943061;147;27321;-82
2022/12/06 03:04:48;;;;;;;3.67;3.13;;;8.50;99.70;;;;;;943544;147;27303;-81
2022/12/06 03:07:35;;;;;;;2.80;2.60;;;8.50;99.70;;;;;;940351;147;27881;-82
2022/12/06 03:10:03;;;;;;;2.93;2.73;;;8.50;99.80;;;;;;943221;147;27410;-82
2022/12/06 03:12:39;;;;;;;3.40;3.10;;;8.50;99.80;;;;;;941171;147;27444;-82
2022/12/06 03:15:08;;;;;;;2.90;2.70;;;8.40;99.80;;;;;;939968;147;27309;-82
2022/12/06 03:17:47;;;;;;;3.73;2.50;;;8.40;99.80;;;;;;940161;147;27952;-82
2022/12/06 03:20:25;;;;;;;3.63;2.80;;;8.40;99.90;;;;;;939697;147;27431;-82
2022/12/06 03:22:52;;;;;;;2.90;2.70;;;8.40;99.90;;;;;;939749;147;28597;-82
2022/12/06 03:25:18;;;;;;;2.80;2.50;;;8.40;99.90;;;;;;939374;147;27348;-82
2022/12/06 03:27:45;;;;;;;3.57;3.00;;;8.40;99.90;;;;;;939640;147;27295;-82
2022/12/06 03:30:12;;;;;;;3.10;2.80;;;8.40;99.90;;;;;;941264;147;27299;-81
2022/12/06 03:32:38;;;;;;;5.23;2.67;;;8.40;99.90;;;;;;942151;147;27382;-82
2022/12/06 03:35:05;;;;;;;2.83;2.60;;;8.40;99.90;;;;;;942981;147;27355;-82
2022/12/06 03:37:31;;;;;;;2.80;2.60;;;8.50;99.90;;;;;;941301;147;27384;-81
2022/12/06 03:40:07;;;;;;;3.20;2.90;;;8.50;99.90;;;;;;942605;147;27810;-82
2022/12/06 03:42:33;;;;;;;3.00;2.60;;;8.50;99.90;;;;;;942733;147;27370;-81
2022/12/06 03:45:00;;;;;;;5.10;3.23;;;8.50;99.90;;;;;;941900;147;27369;-82
2022/12/06 03:47:29;;;;;;;3.37;2.87;;;8.50;99.90;;;;;;943103;147;27464;-83
2022/12/06 03:49:59;;;;;;;4.73;3.10;;;8.50;99.90;;;;;;943514;147;27278;-83
2022/12/06 03:52:25;;;;;;;3.70;2.87;;;8.50;99.90;;;;;;940975;147;27435;-83
2022/12/06 03:54:52;;;;;;;2.70;2.50;;;8.50;99.90;;;;;;941689;147;27322;-82
2022/12/06 03:57:18;;;;;;;2.90;2.70;;;8.50;99.90;;;;;;943774;147;27417;-82
2022/12/06 03:59:45;;;;;;;3.20;3.00;;;8.60;99.90;;;;;;941870;147;27381;-83
2022/12/06 04:02:11;;;;;;;3.03;2.73;;;8.60;99.80;;;;;;940853;147;27340;-83
2022/12/06 04:04:39;;;;;;;3.20;3.00;;;8.60;99.80;;;;;;942415;147;27398;-83
2022/12/06 04:07:05;;;;;;;3.33;2.80;;;8.60;99.80;;;;;;942963;150;27617;-83
2022/12/06 04:15:01;;;;;;;3.10;2.90;;;8.60;99.40;;;;;;944436;147;27362;-83
2022/12/06 04:20:12;;;;;;;3.00;2.70;;;8.50;99.20;;;;;;942197;147;27314;-82
2022/12/06 04:25:24;;;;;;;3.93;2.60;;;8.50;99.10;;;;;;944819;147;27500;-82
2022/12/06 04:38:49;;;;;;;3.27;2.97;;;8.30;98.50;;;;;;942000;147;27283;-82
2022/12/06 04:43:40;;;;;;;2.90;2.70;;;8.30;98.40;;;;;;940965;147;27380;-81
2022/12/06 04:43:42;;;;;;;2.70;2.50;;;8.30;98.40;;;;;;939616;147;27927;-82
2022/12/06 04:46:09;;;;;;;2.90;2.60;;;8.20;98.30;;;;;;941577;148;27449;-81
2022/12/06 04:48:35;;;;;;;3.23;2.93;;;8.20;98.30;;;;;;921971;149;27327;-81
2022/12/06 04:51:02;;;;;;;2.77;2.57;;;8.20;98.30;;;;;;942760;146;27282;-81
2022/12/06 04:53:28;;;;;;;3.50;3.20;;;8.20;98.30;;;;;;937201;145;27351;-81
2022/12/06 04:55:55;;;;;;;3.60;3.30;;;8.20;98.30;;;;;;934819;148;28314;-82
2022/12/06 04:58:22;;;;;;;2.90;2.70;;;8.20;98.30;;;;;;933880;149;27362;-82
2022/12/06 05:00:51;;;;;;;3.30;3.00;;;8.10;98.30;;;;;;933690;149;27472;-82
2022/12/06 05:03:18;;;;;;;3.27;2.97;;;8.10;98.40;;;;;;934021;149;27375;-82
2022/12/06 05:05:45;;;;;;;3.20;3.00;;;8.10;98.40;;;;;;934445;149;27306;-82
2022/12/06 05:08:11;;;;;;;2.90;2.63;;;8.10;98.40;;;;;;934911;149;27420;-82
2022/12/06 05:10:37;;;;;;;2.83;2.60;;;8.10;98.20;;;;;;935287;149;28148;-82
2022/12/06 05:13:04;;;;;;;2.90;2.70;;;8.10;98.20;;;;;;934597;149;27339;-81
2022/12/06 05:15:31;;;;;;;3.70;2.60;;;8.10;98.20;;;;;;939260;147;27321;-81
2022/12/06 05:17:57;;;;;;;2.80;2.60;;;8.10;98.20;;;;;;918913;151;27314;-82
2022/12/06 05:20:24;;;;;;;3.17;2.97;;;8.10;98.10;;;;;;921281;151;27367;-81
2022/12/06 05:22:50;;;;;;;3.97;3.13;;;8.10;98.00;;;;;;918804;150;27740;-82
2022/12/06 05:25:17;;;;;;;3.20;2.90;;;8.00;98.00;;;;;;940114;147;27272;-82
2022/12/06 05:27:44;;;;;;;3.53;3.23;;;8.00;98.00;;;;;;934848;149;27419;-82
2022/12/06 05:30:10;;;;;;;2.97;2.77;;;8.00;97.90;;;;;;935031;149;27336;-82
2022/12/06 05:32:37;;;;;;;2.90;2.70;;;8.00;97.90;;;;;;935544;149;27812;-82
2022/12/06 05:35:03;;;;;;;3.50;3.07;;;8.00;97.80;;;;;;936171;149;27350;-81
2022/12/06 05:37:30;;;;;;;3.50;3.20;;;8.00;97.70;;;;;;936172;149;27273;-82
2022/12/06 05:39:56;;;;;;;3.60;3.30;;;8.00;97.70;;;;;;935549;149;27311;-81
2022/12/06 05:42:23;;;;;;;3.50;3.20;;;8.00;97.60;;;;;;932648;152;27452;-81
2022/12/06 05:44:50;;;;;;;3.20;2.90;;;7.90;97.60;;;;;;934119;149;27343;-82
2022/12/06 05:47:16;;;;;;;3.30;3.10;;;7.90;97.20;;;;;;934399;152;27418;-82
2022/12/06 05:49:43;;;;;;;3.37;3.07;;;7.90;97.60;;;;;;932671;152;27386;-82
2022/12/06 05:52:09;;;;;;;3.23;3.03;;;7.90;97.50;;;;;;934550;151;27384;-81
2022/12/06 05:54:36;;;;;;;3.50;3.20;;;7.90;97.60;;;;;;931818;152;27367;-81
2022/12/06 05:57:03;;;;;;;3.57;3.27;;;7.90;97.70;;;;;;932692;152;27402;-82
2022/12/06 05:59:29;;;;;;;3.50;3.20;;;7.90;97.70;;;;;;931899;152;27382;-81
2022/12/06 06:01:56;;;;;;;3.40;3.13;;;7.90;97.70;;;;;;933321;152;27474;-82
2022/12/06 06:04:22;;;;;;;4.10;3.13;;;7.90;97.70;;;;;;931539;152;27323;-81
2022/12/06 06:06:50;;;;;;;3.83;3.53;;;7.90;97.70;;;;;;932128;152;27300;-82
2022/12/06 06:09:16;;;;;;;3.83;3.40;;;7.90;97.70;;;;;;931022;152;27359;-82
2022/12/06 06:11:42;;;;;;;4.37;3.50;;;7.80;97.70;;;;;;933021;152;27299;-81
2022/12/06 06:14:09;;;;;;;3.63;3.20;;;7.80;97.60;;;;;;939253;151;27343;-81
2022/12/06 06:16:35;;;;;;;3.50;3.20;;;7.80;97.80;;;;;;932459;152;27333;-82
2022/12/06 06:19:02;;;;;;;3.53;3.23;;;7.80;97.80;;;;;;933733;149;27312;-82
2022/12/06 06:21:28;;;;;;;4.00;3.57;;;7.80;97.80;;;;;;931819;150;27650;-81
2022/12/06 06:23:58;;;;;;;4.00;3.60;;;7.80;97.80;;;;;;935771;152;27322;-81
2022/12/06 06:26:24;;;;;;;3.20;3.00;;;7.80;97.80;;;;;;933829;152;27487;-82
2022/12/06 06:28:51;;;;;;;3.70;3.40;;;7.80;97.80;;;;;;931985;149;27302;-82
2022/12/06 06:31:17;;;;;;;3.03;2.83;;;7.90;97.80;;;;;;934653;152;27435;-82
2022/12/06 06:33:44;;;;;;;3.40;3.17;;;7.80;97.80;;;;;;924032;153;27288;-82
2022/12/06 06:36:11;;;;;;;3.80;3.33;;;7.80;97.90;;;;;;947072;150;27249;-81
2022/12/06 06:38:37;;;;;;;3.03;2.83;;;7.80;98.30;;;;;;944191;148;27452;-82
2022/12/06 06:41:04;;;;;;;3.73;3.30;;;7.80;97.90;;;;;;947257;150;27296;-82
2022/12/06 06:43:30;;;;;;;3.53;3.23;;;7.90;97.90;;;;;;942842;150;27747;-81
2022/12/06 06:45:57;;;;;;;3.27;2.87;;;7.80;97.80;;;;;;933122;150;27344;-81
2022/12/06 06:48:23;;;;;;;3.70;3.40;;;7.80;97.80;;;;;;927674;150;27388;-81
2022/12/06 06:50:50;;;;;;;3.20;3.00;;;7.80;97.80;;;;;;941721;147;27355;-82
2022/12/06 06:53:17;;;;;;;5.67;3.73;;;7.80;97.80;;;;;;942637;147;27351;-81
2022/12/06 06:55:43;;;;;;;3.47;3.20;;;7.80;97.70;;;;;;943772;147;27750;-82
2022/12/06 06:58:10;;;;;;;4.73;3.93;;;7.80;97.70;;;;;;942299;147;27285;-82
2022/12/06 07:00:36;;;;;;;3.23;2.93;;;7.80;97.80;;;;;;940750;147;27269;-81
2022/12/06 07:03:03;;;;;;;4.57;3.37;;;7.80;97.80;;;;;;942741;147;27358;-82
2022/12/06 07:05:30;;;;;;;3.47;3.10;;;7.80;97.80;;;;;;942065;147;27364;-82
2022/12/06 07:07:56;;;;;;;3.70;3.23;;;7.80;97.90;;;;;;940150;147;27890;-81
2022/12/06 07:10:25;;;;;;;3.50;3.20;;;7.80;97.90;;;;;;941299;147;27307;-81
2022/12/06 07:12:49;;;;;;;4.07;3.00;;;7.80;97.90;;;;;;920066;150;27373;-82
2022/12/06 07:15:16;;;;;;;3.13;2.93;;;7.80;97.90;;;;;;941330;147;27305;-82
2022/12/06 07:17:42;;;;;;;3.90;3.23;;;7.80;97.90;;;;;;926472;150;27384;-81
2022/12/06 07:20:09;;;;;;;3.70;3.20;;;7.80;97.90;;;;;;943312;146;27360;-81
2022/12/06 07:22:36;;;;;;;3.43;3.13;;;7.80;97.90;;;;;;940050;147;27346;-81
2022/12/06 07:25:02;;;;;;;3.40;3.10;;;7.80;97.90;;;;;;923649;149;27334;-81
2022/12/06 07:27:29;;;;;;;3.70;3.40;;;7.80;97.90;;;;;;941128;147;27313;-81
2022/12/06 07:29:55;;;;;;;4.17;3.77;;;7.80;97.90;;;;;;930284;149;27357;-80
2022/12/06 07:32:22;;;;;;;3.33;3.00;;;7.80;97.80;;;;;;928469;150;28592;-81
2022/12/06 07:34:49;;;;;;;3.40;3.10;;;7.80;97.80;;;;;;943777;147;27307;-81
2022/12/06 07:37:17;;;;;;;3.80;3.50;;;7.80;97.80;;;;;;943106;147;27338;-82
2022/12/06 07:39:42;;;;;;;3.87;3.57;;;7.80;97.70;;;;;;939891;147;27302;-81
2022/12/06 07:45:06;;;;;;;3.43;3.13;;;7.80;97.80;;;;;;943307;147;27457;-82
2022/12/06 07:47:32;;;;;;;4.40;3.67;;;7.80;97.80;;;;;;941920;147;27446;-82
2022/12/06 07:49:59;;;;;;;3.80;3.10;;;7.80;97.80;;;;;;942672;147;27478;-81
2022/12/06 07:52:25;;;;;;;3.50;3.20;;;7.80;97.80;;;;;;942328;147;27350;-81
2022/12/06 07:54:52;;;;;;;3.67;3.27;;;7.80;98.10;;;;;;944543;147;27855;-82
2022/12/06 07:57:20;;;;;;;3.50;3.20;;;7.80;97.90;;;;;;941852;147;27448;-81
2022/12/06 07:59:45;;;;;;;4.30;3.60;;;7.80;97.90;;;;;;943011;147;27357;-81
2022/12/06 08:02:17;;;;;;;3.57;3.27;;;7.80;97.90;;;;;;941182;147;28313;-81
2022/12/06 08:04:44;;;;;;;3.40;3.10;;;7.80;98.00;;;;;;941624;147;27378;-81
2022/12/06 08:07:11;;;;;;;3.57;3.27;;;7.80;97.90;;;;;;942679;145;27342;-81
2022/12/06 08:09:37;;;;;;;3.70;3.40;;;7.80;98.00;;;;;;942106;147;27459;-82
2022/12/06 08:12:04;;;;;;;3.80;3.27;;;7.80;98.00;;;;;;942614;147;27360;-81
2022/12/06 08:14:30;;;;;;;5.03;3.33;;;7.80;98.00;;;;;;943052;147;27828;-80
2022/12/06 08:16:57;;;;;;;4.63;3.80;;;7.90;98.00;;;;;;939151;147;27246;-81
2022/12/06 08:19:24;;;;;;;4.17;3.77;;;7.90;98.00;;;;;;942720;147;27375;-81
2022/12/06 08:21:50;;;;;;;4.07;3.77;;;7.90;97.90;;;;;;942501;147;27311;-81
2022/12/06 08:24:17;;;;;;;3.57;3.27;;;7.90;97.80;;;;;;943056;147;27377;-81
2022/12/06 08:26:43;;;;;;;4.27;3.70;;;7.90;97.90;;;;;;942538;147;27422;-81
2022/12/06 08:29:10;;;;;;;3.70;3.40;;;7.90;97.90;;;;;;941405;147;28946;-81
2022/12/06 08:31:36;;;;;;;4.30;3.70;;;8.00;97.80;;;;;;940763;148;27403;-81
2022/12/06 08:34:03;;;;;;;3.97;3.57;;;8.00;97.80;;;;;;939919;148;27396;-82
2022/12/06 08:36:30;;;;;;;3.67;3.37;;;8.00;97.80;;;;;;938990;147;27378;-81
2022/12/06 08:38:56;;;;;;;3.57;3.10;;;8.00;97.80;;;;;;938845;148;27360;-81
2022/12/06 08:44:07;;;;;;;3.97;3.50;;;8.00;97.90;;;;;;939285;147;27513;-82
2022/12/06 08:46:34;;;;;;;4.50;3.50;;;8.10;98.00;;;;;;938995;148;27354;-81
2022/12/06 08:49:01;;;;;;;3.67;3.37;;;8.10;98.10;;;;;;940528;148;27844;-81
2022/12/06 08:51:27;;;;;;;4.33;3.77;;;8.10;98.00;;;;;;936975;151;27398;-81
2022/12/06 08:53:54;;;;;;;3.87;3.57;;;8.20;97.90;;;;;;939532;148;27504;-81
2022/12/06 08:56:20;;;;;;;4.33;3.93;;;8.20;97.90;;;;;;929525;153;27345;-82
2022/12/06 08:58:47;;;;;;;4.10;3.20;;;8.20;97.80;;;;;;943684;148;27837;-82
2022/12/06 09:01:13;;;;;;;4.30;3.90;;;8.30;97.80;;;;;;943207;148;27446;-82
2022/12/06 09:03:40;;;;;;;4.33;3.87;;;8.30;97.60;;;;;;945925;148;27413;-82
2022/12/06 09:06:07;;;;;;;3.83;3.43;;;8.30;97.60;;;;;;946870;150;27362;-82
2022/12/06 09:08:33;;;;;;;3.90;3.60;;;8.30;97.50;;;;;;945571;148;27446;-81
2022/12/06 09:11:00;;;;;;;3.97;3.50;;;8.30;97.40;;;;;;947054;150;27290;-81
2022/12/06 09:13:26;;;;;;;3.70;3.40;;;8.40;97.40;;;;;;945612;150;27370;-81
2022/12/06 09:15:53;;;;;;;4.33;3.47;;;8.40;97.40;;;;;;947795;150;27373;-81
2022/12/06 09:18:20;;;;;;;4.33;3.77;;;8.40;97.50;;;;;;944704;150;27458;-82
2022/12/06 09:20:46;;;;;;;3.90;3.27;;;8.40;97.60;;;;;;945209;148;27409;-84
2022/12/06 09:23:13;;;;;;;3.83;3.37;;;8.50;97.60;;;;;;945053;148;27411;-83
2022/12/06 09:25:42;;;;;;;5.47;3.40;;;8.50;97.50;;;;;;943937;150;27278;-82
2022/12/06 09:28:09;;;;;;;4.70;3.30;;;8.50;97.30;;;;;;946248;150;27349;-82
2022/12/06 09:30:35;;;;;;;3.90;3.60;;;8.60;97.30;;;;;;947018;149;27415;-82
2022/12/06 09:33:02;;;;;;;3.77;3.47;;;8.60;97.20;;;;;;944963;148;27360;-82
2022/12/06 09:35:28;;;;;;;6.47;3.70;;;8.60;97.10;;;;;;945185;148;27353;-82
2022/12/06 09:37:55;;;;;;;5.13;3.83;;;8.60;97.00;;;;;;946318;150;27357;-83
2022/12/06 09:40:34;;;;;;;4.27;3.50;;;8.70;97.30;;;;;;946650;148;27310;-82
2022/12/06 09:43:00;;;;;;;4.17;3.63;;;8.70;96.90;;;;;;934087;152;27480;-83
2022/12/06 09:45:54;;;;;;;3.43;3.17;;;8.70;96.80;;;;;;944229;150;27445;-83
2022/12/06 09:48:42;;;;;;;4.13;3.33;;;8.70;96.90;;;;;;944986;150;28269;-83
2022/12/06 09:51:23;;;;;;;3.60;3.27;;;8.80;96.90;;;;;;950092;146;27302;-83
2022/12/06 09:53:52;;;;;;;3.27;2.97;;;8.80;96.90;;;;;;935759;146;27311;-82
2022/12/06 09:56:21;;;;;;;3.40;3.10;;;8.90;96.80;;;;;;952472;146;27511;-82
2022/12/06 09:59:15;;;;;;;3.83;3.53;;;8.90;96.60;;;;;;954347;146;27850;-83
2022/12/06 10:01:54;;;;;;;5.17;3.50;;;8.90;96.30;;;;;;955715;146;27350;-82
2022/12/06 10:04:45;;;;;;;4.53;3.80;;;8.90;96.10;;;;;;953707;146;27395;-82
2022/12/06 10:07:18;;;;;;;3.40;3.10;;;8.90;96.10;;;;;;953779;146;27406;-83
2022/12/06 10:09:50;;;;;;;3.37;3.07;;;9.00;96.10;;;;;;955433;146;28020;-82
2022/12/06 10:12:34;;;;;;;3.40;3.10;;;9.00;96.10;;;;;;953495;146;27810;-83
2022/12/06 10:15:13;;;;;;;3.30;3.00;;;9.00;96.10;;;;;;955959;146;27334;-83
2022/12/06 10:17:45;;;;;;;13.00;4.20;;;9.00;95.90;;;;;;954054;146;27409;-82
2022/12/06 10:20:27;;;;;;;3.37;3.07;;;9.00;95.70;;;;;;952209;146;27359;-82
2022/12/06 10:23:15;;;;;;;3.77;3.03;;;9.10;95.50;;;;;;953635;146;27455;-82
2022/12/06 10:26:12;;;;;;;3.20;2.90;;;9.10;95.30;;;;;;953576;146;27343;-82
2022/12/06 10:28:38;;;;;;;2.90;2.60;;;9.10;95.10;;;;;;953557;146;27308;-85
2022/12/06 10:31:20;;;;;;;3.33;3.03;;;9.10;95.00;;;;;;953685;146;27313;-85
2022/12/06 10:33:50;;;;;;;4.57;3.10;;;9.10;94.90;;;;;;952289;146;27308;-84
2022/12/06 10:36:16;;;;;;;2.80;2.60;;;9.10;95.10;;;;;;954705;146;27346;-82
2022/12/06 10:38:49;;;;;;;3.00;2.80;;;9.10;95.20;;;;;;953393;146;27489;-81
2022/12/06 10:41:25;;;;;;;3.43;3.10;;;9.10;95.00;;;;;;953107;146;27457;-82
2022/12/06 10:43:57;;;;;;;3.23;3.03;;;9.10;95.10;;;;;;952444;146;27795;-82
2022/12/06 10:49:27;;;;;;;11.27;4.27;;;9.10;94.40;;;;;;949702;146;27403;-82
2022/12/06 10:52:30;;;;;;;3.70;2.90;;;9.10;94.40;;;;;;941407;147;27450;-82
2022/12/06 10:55:00;;;;;;;3.87;2.60;;;9.10;94.40;;;;;;943134;147;27330;-85
2022/12/06 10:57:26;;;;;;;3.13;2.83;;;9.10;94.60;;;;;;942392;147;27354;-84
2022/12/06 11:00:14;;;;;;;3.00;2.43;;;9.10;94.60;;;;;;937635;147;27523;-84
2022/12/06 11:02:43;;;;;;;2.90;2.70;;;9.20;94.70;;;;;;939223;147;28263;-85
2022/12/06 11:05:16;;;;;;;3.57;2.73;;;9.20;94.60;;;;;;940464;147;27342;-82
2022/12/06 11:07:42;;;;;;;3.33;2.87;;;9.20;94.50;;;;;;942549;147;27349;-85
2022/12/06 11:10:18;;;;;;;3.20;2.90;;;9.30;94.40;;;;;;940885;147;27452;-82
2022/12/06 11:12:44;;;;;;;3.23;2.93;;;9.30;94.40;;;;;;942564;147;27470;-82
2022/12/06 11:15:14;;;;;;;3.27;2.97;;;9.30;94.30;;;;;;942732;147;27241;-82
2022/12/06 11:17:40;;;;;;;2.37;2.27;;;9.40;94.10;;;;;;943096;147;27380;-82
2022/12/06 11:20:10;;;;;;;3.10;2.83;;;9.40;93.90;;;;;;944432;147;27406;-82
2022/12/06 11:23:04;;;;;;;2.80;2.60;;;9.40;93.70;;;;;;937282;147;27389;-81
2022/12/06 11:25:52;;;;;;;3.07;2.80;;;9.50;93.70;;;;;;940581;147;27463;-81
2022/12/06 11:28:20;;;;;;;2.67;2.43;;;9.50;93.70;;;;;;941529;147;27726;-82
2022/12/06 11:30:46;;;;;;;3.20;2.90;;;9.50;93.60;;;;;;931248;150;27441;-83
2022/12/06 11:33:12;;;;;;;4.23;3.77;;;9.60;93.40;;;;;;924981;149;27852;-82
2022/12/06 11:35:39;;;;;;;3.73;3.40;;;9.60;93.10;;;;;;924848;149;27427;-82
2022/12/06 11:38:06;;;;;;;4.67;3.33;;;9.60;92.80;;;;;;920194;150;27320;-82
2022/12/06 11:40:32;;;;;;;2.93;2.73;;;9.60;92.60;;;;;;940580;147;27369;-82
2022/12/06 11:42:58;;;;;;;3.53;2.97;;;9.60;92.50;;;;;;918060;150;27471;-82
2022/12/06 11:45:25;;;;;;;4.00;2.73;;;9.60;92.30;;;;;;941034;147;27338;-82
2022/12/06 11:47:52;;;;;;;6.00;3.13;;;9.60;92.30;;;;;;941641;147;27292;-83
2022/12/06 11:50:18;;;;;;;2.87;2.67;;;9.60;92.30;;;;;;940930;147;27414;-83
2022/12/06 11:53:06;;;;;;;4.37;3.23;;;9.60;92.30;;;;;;954523;145;27367;-82
2022/12/06 11:55:35;;;;;;;4.83;2.30;;;9.60;92.30;;;;;;952296;146;27337;-83
2022/12/06 11:58:02;;;;;;;3.13;2.83;;;9.60;92.50;;;;;;954041;145;27423;-83
2022/12/06 12:00:29;;;;;;;2.60;2.40;;;9.60;92.60;;;;;;930173;145;27312;-83
2022/12/06 12:02:55;;;;;;;4.73;2.83;;;9.60;92.90;;;;;;954771;146;27352;-82
2022/12/06 12:05:33;;;;;;;6.27;2.87;;;9.70;92.60;;;;;;953142;146;27430;-83
2022/12/06 12:08:03;;;;;;;3.23;2.93;;;9.70;92.50;;;;;;954542;145;28011;-83
2022/12/06 12:10:38;;;;;;;3.80;3.07;;;9.70;92.30;;;;;;952139;146;27431;-82
2022/12/06 12:15:54;;;;;;;2.77;2.57;;;9.80;92.20;;;;;;955423;145;27383;-83
2022/12/06 12:18:36;;;;;;;3.20;2.80;;;9.90;92.10;;;;;;936260;148;27381;-83
2022/12/06 12:21:02;;;;;;;2.70;2.50;;;9.90;92.00;;;;;;954842;146;27422;-83
2022/12/06 12:23:38;;;;;;;2.87;2.67;;;9.90;92.10;;;;;;952492;146;27347;-83
2022/12/06 12:26:07;;;;;;;2.73;2.43;;;10.00;92.10;;;;;;952189;146;27403;-83
2022/12/06 12:28:34;;;;;;;2.50;2.30;;;10.00;92.10;;;;;;951035;146;27367;-83
2022/12/06 12:31:18;;;;;;;2.50;2.40;;;10.10;91.80;;;;;;955003;145;27295;-83
2022/12/06 12:33:45;;;;;;;2.80;2.60;;;10.10;91.60;;;;;;953735;145;27361;-83
2022/12/06 12:36:26;;;;;;;2.60;2.40;;;10.10;91.40;;;;;;953979;146;27320;-83
2022/12/06 12:38:56;;;;;;;2.50;2.33;;;10.20;91.20;;;;;;956121;145;28075;-84
2022/12/06 12:41:22;;;;;;;3.27;2.33;;;10.20;91.20;;;;;;954369;146;27360;-84
2022/12/06 12:43:52;;;;;;;3.00;2.70;;;10.20;91.00;;;;;;953684;146;27890;-83
2022/12/06 12:46:19;;;;;;;2.83;2.63;;;10.30;90.90;;;;;;952745;145;27376;-84
2022/12/06 12:48:45;;;;;;;3.20;2.80;;;10.30;90.90;;;;;;953385;146;27421;-83
2022/12/06 12:51:21;;;;;;;2.83;2.53;;;10.30;90.80;;;;;;953210;145;27359;-83
2022/12/06 12:53:48;;;;;;;2.70;2.50;;;10.30;90.80;;;;;;942244;147;27872;-83
2022/12/06 12:56:14;;;;;;;2.60;2.40;;;10.40;90.80;;;;;;940535;147;27323;-83
2022/12/06 12:58:41;;;;;;;2.30;2.10;;;10.40;90.60;;;;;;939573;147;27362;-83
2022/12/06 13:01:16;;;;;;;2.60;2.40;;;10.40;90.30;;;;;;940513;147;27255;-83
2022/12/06 13:03:43;;;;;;;2.93;2.50;;;10.40;90.10;;;;;;939341;147;27327;-83
2022/12/06 13:06:12;;;;;;;4.10;2.90;;;10.40;90.00;;;;;;940509;147;27384;-83
2022/12/06 13:08:39;;;;;;;2.60;2.40;;;10.40;90.00;;;;;;937667;148;27368;-83
2022/12/06 13:11:05;;;;;;;3.10;2.60;;;10.40;89.70;;;;;;941786;148;27333;-83
2022/12/06 13:13:35;;;;;;;3.00;2.70;;;10.40;89.50;;;;;;938280;148;27320;-83
2022/12/06 13:16:01;;;;;;;2.70;2.50;;;10.40;89.30;;;;;;940449;148;27483;-82
2022/12/06 13:18:28;;;;;;;2.67;2.37;;;10.40;89.50;;;;;;938408;147;27742;-83
2022/12/06 13:20:54;;;;;;;3.37;2.57;;;10.40;89.50;;;;;;940049;147;27354;-83
2022/12/06 13:23:22;;;;;;;3.40;2.37;;;10.30;89.50;;;;;;940448;147;27389;-83
2022/12/06 13:26:12;;;;;;;2.53;2.33;;;10.40;89.50;;;;;;937971;147;27326;-83
2022/12/06 13:28:38;;;;;;;4.23;2.63;;;10.30;89.30;;;;;;942515;147;27337;-84
2022/12/06 13:31:05;;;;;;;3.93;2.53;;;10.30;89.20;;;;;;940270;148;27810;-84
2022/12/06 13:33:33;;;;;;;2.70;2.37;;;10.30;89.30;;;;;;938840;147;27345;-83
2022/12/06 13:36:05;;;;;;;3.20;2.57;;;10.30;89.20;;;;;;939938;147;27376;-83
2022/12/06 13:38:32;;;;;;;2.83;2.47;;;10.30;89.00;;;;;;939298;148;27318;-84